sensor_id;sensor_type;location;lat;lon;timestamp;P1;durP1;ratioP1;P2;durP2;ratioP2
24751;SDS011;27246;52.376;4.628;2023-02-04T00:01:57;20.42;;;4.95;;
24751;SDS011;27246;52.376;4.628;2023-02-04T00:06:58;16.77;;;4.65;;
24751;SDS011;27246;52.376;4.628;2023-02-04T00:12:00;20.75;;;5.00;;
24751;SDS011;27246;52.376;4.628;2023-02-04T00:17:02;21.95;;;4.70;;
24751;SDS011;27246;52.376;4.628;2023-02-04T00:22:03;19.70;;;3.83;;
24751;SDS011;27246;52.376;4.628;2023-02-04T00:27:05;19.17;;;4.07;;
24751;SDS011;27246;52.376;4.628;2023-02-04T00:32:07;18.33;;;4.18;;
24751;SDS011;27246;52.376;4.628;2023-02-04T00:37:09;18.73;;;4.00;;
24751;SDS011;27246;52.376;4.628;2023-02-04T00:42:11;19.75;;;4.10;;
24751;SDS011;27246;52.376;4.628;2023-02-04T00:47:13;14.77;;;4.68;;
24751;SDS011;27246;52.376;4.628;2023-02-04T00:52:14;20.33;;;4.00;;
24751;SDS011;27246;52.376;4.628;2023-02-04T00:57:16;19.40;;;3.90;;
24751;SDS011;27246;52.376;4.628;2023-02-04T01:02:20;21.70;;;4.35;;
24751;SDS011;27246;52.376;4.628;2023-02-04T01:07:21;19.13;;;4.45;;
24751;SDS011;27246;52.376;4.628;2023-02-04T01:12:23;19.90;;;3.55;;
24751;SDS011;27246;52.376;4.628;2023-02-04T01:17:27;17.17;;;3.88;;
24751;SDS011;27246;52.376;4.628;2023-02-04T01:22:29;16.48;;;3.83;;
24751;SDS011;27246;52.376;4.628;2023-02-04T01:27:31;17.90;;;4.03;;
24751;SDS011;27246;52.376;4.628;2023-02-04T01:32:32;17.88;;;4.38;;
24751;SDS011;27246;52.376;4.628;2023-02-04T01:37:34;17.88;;;4.40;;
24751;SDS011;27246;52.376;4.628;2023-02-04T01:42:36;16.23;;;3.80;;
24751;SDS011;27246;52.376;4.628;2023-02-04T01:47:39;19.42;;;4.05;;
24751;SDS011;27246;52.376;4.628;2023-02-04T01:52:40;23.58;;;4.88;;
24751;SDS011;27246;52.376;4.628;2023-02-04T01:57:44;22.63;;;4.53;;
24751;SDS011;27246;52.376;4.628;2023-02-04T02:02:47;18.23;;;4.10;;
24751;SDS011;27246;52.376;4.628;2023-02-04T02:07:53;20.70;;;4.38;;
24751;SDS011;27246;52.376;4.628;2023-02-04T02:12:57;23.05;;;4.55;;
24751;SDS011;27246;52.376;4.628;2023-02-04T02:17:59;19.15;;;4.10;;
24751;SDS011;27246;52.376;4.628;2023-02-04T02:23:09;23.67;;;4.75;;
24751;SDS011;27246;52.376;4.628;2023-02-04T02:28:19;17.10;;;3.90;;
24751;SDS011;27246;52.376;4.628;2023-02-04T02:33:22;14.60;;;3.95;;
24751;SDS011;27246;52.376;4.628;2023-02-04T02:38:25;20.27;;;5.18;;
24751;SDS011;27246;52.376;4.628;2023-02-04T02:43:27;22.25;;;5.43;;
24751;SDS011;27246;52.376;4.628;2023-02-04T02:48:30;21.13;;;4.10;;
24751;SDS011;27246;52.376;4.628;2023-02-04T02:53:32;22.98;;;4.18;;
24751;SDS011;27246;52.376;4.628;2023-02-04T02:58:35;19.48;;;4.38;;
24751;SDS011;27246;52.376;4.628;2023-02-04T03:03:55;15.18;;;3.75;;
24751;SDS011;27246;52.376;4.628;2023-02-04T03:08:57;14.20;;;3.25;;
24751;SDS011;27246;52.376;4.628;2023-02-04T03:13:58;15.75;;;3.78;;
24751;SDS011;27246;52.376;4.628;2023-02-04T03:19:05;18.63;;;4.38;;
24751;SDS011;27246;52.376;4.628;2023-02-04T03:24:07;18.90;;;4.15;;
24751;SDS011;27246;52.376;4.628;2023-02-04T03:29:11;19.33;;;3.78;;
24751;SDS011;27246;52.376;4.628;2023-02-04T03:34:12;12.35;;;3.80;;
24751;SDS011;27246;52.376;4.628;2023-02-04T03:39:14;22.42;;;4.65;;
24751;SDS011;27246;52.376;4.628;2023-02-04T03:44:16;24.73;;;4.20;;
24751;SDS011;27246;52.376;4.628;2023-02-04T03:49:19;25.02;;;3.90;;
24751;SDS011;27246;52.376;4.628;2023-02-04T03:54:20;19.83;;;5.20;;
24751;SDS011;27246;52.376;4.628;2023-02-04T03:59:39;15.48;;;4.22;;
24751;SDS011;27246;52.376;4.628;2023-02-04T04:04:40;21.73;;;4.63;;
24751;SDS011;27246;52.376;4.628;2023-02-04T04:09:42;17.02;;;4.40;;
24751;SDS011;27246;52.376;4.628;2023-02-04T04:14:44;22.23;;;4.82;;
24751;SDS011;27246;52.376;4.628;2023-02-04T04:19:46;20.90;;;4.60;;
24751;SDS011;27246;52.376;4.628;2023-02-04T04:24:49;17.83;;;3.83;;
24751;SDS011;27246;52.376;4.628;2023-02-04T04:29:51;21.92;;;5.03;;
24751;SDS011;27246;52.376;4.628;2023-02-04T04:34:54;23.52;;;5.88;;
24751;SDS011;27246;52.376;4.628;2023-02-04T04:39:55;24.58;;;4.40;;
24751;SDS011;27246;52.376;4.628;2023-02-04T04:44:57;21.55;;;4.43;;
24751;SDS011;27246;52.376;4.628;2023-02-04T04:49:59;22.02;;;4.70;;
24751;SDS011;27246;52.376;4.628;2023-02-04T04:55:00;23.00;;;4.72;;
24751;SDS011;27246;52.376;4.628;2023-02-04T05:00:03;22.48;;;5.00;;
24751;SDS011;27246;52.376;4.628;2023-02-04T05:05:05;21.15;;;4.05;;
24751;SDS011;27246;52.376;4.628;2023-02-04T05:10:07;19.00;;;4.35;;
24751;SDS011;27246;52.376;4.628;2023-02-04T05:15:09;21.70;;;5.22;;
24751;SDS011;27246;52.376;4.628;2023-02-04T05:20:11;17.85;;;4.22;;
24751;SDS011;27246;52.376;4.628;2023-02-04T05:25:13;18.17;;;4.47;;
24751;SDS011;27246;52.376;4.628;2023-02-04T05:30:16;18.27;;;4.07;;
24751;SDS011;27246;52.376;4.628;2023-02-04T05:35:18;20.73;;;4.88;;
24751;SDS011;27246;52.376;4.628;2023-02-04T05:40:20;17.73;;;4.38;;
24751;SDS011;27246;52.376;4.628;2023-02-04T05:45:22;18.15;;;4.88;;
24751;SDS011;27246;52.376;4.628;2023-02-04T05:50:24;20.77;;;5.28;;
24751;SDS011;27246;52.376;4.628;2023-02-04T05:55:41;15.45;;;3.72;;
24751;SDS011;27246;52.376;4.628;2023-02-04T06:00:43;18.73;;;4.72;;
24751;SDS011;27246;52.376;4.628;2023-02-04T06:05:44;23.33;;;5.40;;
24751;SDS011;27246;52.376;4.628;2023-02-04T06:10:46;25.52;;;5.75;;
24751;SDS011;27246;52.376;4.628;2023-02-04T06:15:48;17.05;;;4.28;;
24751;SDS011;27246;52.376;4.628;2023-02-04T06:20:49;14.50;;;4.40;;
24751;SDS011;27246;52.376;4.628;2023-02-04T06:25:51;17.85;;;4.45;;
24751;SDS011;27246;52.376;4.628;2023-02-04T06:30:53;20.45;;;3.97;;
24751;SDS011;27246;52.376;4.628;2023-02-04T06:35:54;23.20;;;4.13;;
24751;SDS011;27246;52.376;4.628;2023-02-04T06:40:56;19.50;;;4.47;;
24751;SDS011;27246;52.376;4.628;2023-02-04T06:45:58;18.05;;;4.85;;
24751;SDS011;27246;52.376;4.628;2023-02-04T06:50:59;17.88;;;4.57;;
24751;SDS011;27246;52.376;4.628;2023-02-04T06:56:01;18.63;;;4.55;;
24751;SDS011;27246;52.376;4.628;2023-02-04T07:01:03;21.52;;;4.20;;
24751;SDS011;27246;52.376;4.628;2023-02-04T07:06:06;20.05;;;4.72;;
24751;SDS011;27246;52.376;4.628;2023-02-04T07:11:08;13.20;;;4.05;;
24751;SDS011;27246;52.376;4.628;2023-02-04T07:16:10;24.55;;;5.38;;
24751;SDS011;27246;52.376;4.628;2023-02-04T07:21:11;19.92;;;5.03;;
24751;SDS011;27246;52.376;4.628;2023-02-04T07:26:13;21.52;;;4.40;;
24751;SDS011;27246;52.376;4.628;2023-02-04T07:31:15;23.35;;;5.28;;
24751;SDS011;27246;52.376;4.628;2023-02-04T07:36:17;22.35;;;6.05;;
24751;SDS011;27246;52.376;4.628;2023-02-04T07:41:18;29.48;;;5.45;;
24751;SDS011;27246;52.376;4.628;2023-02-04T07:46:21;20.95;;;6.47;;
24751;SDS011;27246;52.376;4.628;2023-02-04T07:51:23;27.35;;;6.15;;
24751;SDS011;27246;52.376;4.628;2023-02-04T07:56:24;23.50;;;7.03;;
24751;SDS011;27246;52.376;4.628;2023-02-04T08:01:26;22.15;;;6.80;;
24751;SDS011;27246;52.376;4.628;2023-02-04T08:06:28;24.58;;;6.05;;
24751;SDS011;27246;52.376;4.628;2023-02-04T08:11:29;28.75;;;5.82;;
24751;SDS011;27246;52.376;4.628;2023-02-04T08:16:31;27.02;;;7.55;;
24751;SDS011;27246;52.376;4.628;2023-02-04T08:21:33;19.20;;;5.55;;
24751;SDS011;27246;52.376;4.628;2023-02-04T08:26:34;28.42;;;6.13;;
24751;SDS011;27246;52.376;4.628;2023-02-04T08:31:36;27.98;;;6.20;;
24751;SDS011;27246;52.376;4.628;2023-02-04T08:36:42;20.17;;;6.43;;
24751;SDS011;27246;52.376;4.628;2023-02-04T08:41:45;24.48;;;5.50;;
24751;SDS011;27246;52.376;4.628;2023-02-04T08:46:46;25.13;;;7.82;;
24751;SDS011;27246;52.376;4.628;2023-02-04T08:51:48;21.42;;;5.82;;
24751;SDS011;27246;52.376;4.628;2023-02-04T08:56:50;20.90;;;5.90;;
24751;SDS011;27246;52.376;4.628;2023-02-04T09:01:51;22.98;;;5.45;;
24751;SDS011;27246;52.376;4.628;2023-02-04T09:06:53;19.48;;;5.75;;
24751;SDS011;27246;52.376;4.628;2023-02-04T09:11:55;23.92;;;5.80;;
24751;SDS011;27246;52.376;4.628;2023-02-04T09:16:57;24.35;;;5.88;;
24751;SDS011;27246;52.376;4.628;2023-02-04T09:21:58;18.13;;;5.45;;
24751;SDS011;27246;52.376;4.628;2023-02-04T09:27:00;22.33;;;5.00;;
24751;SDS011;27246;52.376;4.628;2023-02-04T09:32:02;19.50;;;4.78;;
24751;SDS011;27246;52.376;4.628;2023-02-04T09:37:03;20.63;;;4.90;;
24751;SDS011;27246;52.376;4.628;2023-02-04T09:42:05;20.98;;;4.88;;
24751;SDS011;27246;52.376;4.628;2023-02-04T09:47:10;18.75;;;4.55;;
24751;SDS011;27246;52.376;4.628;2023-02-04T09:52:16;22.70;;;5.05;;
24751;SDS011;27246;52.376;4.628;2023-02-04T09:57:19;17.23;;;4.80;;
24751;SDS011;27246;52.376;4.628;2023-02-04T10:02:25;15.52;;;4.22;;
24751;SDS011;27246;52.376;4.628;2023-02-04T10:07:27;16.92;;;4.32;;
24751;SDS011;27246;52.376;4.628;2023-02-04T10:12:30;15.38;;;3.95;;
24751;SDS011;27246;52.376;4.628;2023-02-04T10:17:32;14.68;;;4.28;;
24751;SDS011;27246;52.376;4.628;2023-02-04T10:22:34;18.40;;;5.47;;
24751;SDS011;27246;52.376;4.628;2023-02-04T10:27:45;19.77;;;5.07;;
24751;SDS011;27246;52.376;4.628;2023-02-04T10:32:48;20.30;;;5.40;;
24751;SDS011;27246;52.376;4.628;2023-02-04T10:38:04;20.30;;;4.68;;
24751;SDS011;27246;52.376;4.628;2023-02-04T10:43:07;15.02;;;4.15;;
24751;SDS011;27246;52.376;4.628;2023-02-04T10:48:18;20.25;;;4.40;;
24751;SDS011;27246;52.376;4.628;2023-02-04T10:53:20;20.13;;;5.75;;
24751;SDS011;27246;52.376;4.628;2023-02-04T10:58:42;17.70;;;4.32;;
24751;SDS011;27246;52.376;4.628;2023-02-04T11:03:44;19.73;;;4.93;;
24751;SDS011;27246;52.376;4.628;2023-02-04T11:08:48;24.00;;;5.15;;
24751;SDS011;27246;52.376;4.628;2023-02-04T11:19:00;21.00;;;4.90;;
24751;SDS011;27246;52.376;4.628;2023-02-04T11:34:45;15.13;;;3.75;;
24751;SDS011;27246;52.376;4.628;2023-02-04T11:39:49;19.85;;;4.82;;
24751;SDS011;27246;52.376;4.628;2023-02-04T11:45:04;13.45;;;3.08;;
24751;SDS011;27246;52.376;4.628;2023-02-04T11:50:18;15.93;;;4.03;;
24751;SDS011;27246;52.376;4.628;2023-02-04T11:55:25;11.15;;;2.97;;
24751;SDS011;27246;52.376;4.628;2023-02-04T12:00:29;11.57;;;3.38;;
24751;SDS011;27246;52.376;4.628;2023-02-04T12:05:42;19.73;;;4.45;;
24751;SDS011;27246;52.376;4.628;2023-02-04T12:10:48;13.90;;;4.03;;
24751;SDS011;27246;52.376;4.628;2023-02-04T12:16:02;14.02;;;3.70;;
24751;SDS011;27246;52.376;4.628;2023-02-04T12:21:11;13.27;;;2.92;;
24751;SDS011;27246;52.376;4.628;2023-02-04T12:26:14;12.27;;;3.70;;
24751;SDS011;27246;52.376;4.628;2023-02-04T12:31:24;16.02;;;3.80;;
24751;SDS011;27246;52.376;4.628;2023-02-04T12:36:26;28.17;;;15.25;;
24751;SDS011;27246;52.376;4.628;2023-02-04T12:41:29;16.70;;;5.72;;
24751;SDS011;27246;52.376;4.628;2023-02-04T12:46:31;15.15;;;4.72;;
24751;SDS011;27246;52.376;4.628;2023-02-04T12:51:33;16.33;;;6.35;;
24751;SDS011;27246;52.376;4.628;2023-02-04T12:56:35;17.45;;;5.95;;
24751;SDS011;27246;52.376;4.628;2023-02-04T13:01:36;20.33;;;5.32;;
24751;SDS011;27246;52.376;4.628;2023-02-04T13:06:38;23.58;;;5.13;;
24751;SDS011;27246;52.376;4.628;2023-02-04T13:11:40;15.68;;;4.45;;
24751;SDS011;27246;52.376;4.628;2023-02-04T13:16:42;22.27;;;4.97;;
24751;SDS011;27246;52.376;4.628;2023-02-04T13:21:43;15.95;;;5.47;;
24751;SDS011;27246;52.376;4.628;2023-02-04T13:26:45;17.60;;;4.43;;
24751;SDS011;27246;52.376;4.628;2023-02-04T13:31:47;14.07;;;4.13;;
24751;SDS011;27246;52.376;4.628;2023-02-04T13:36:49;15.95;;;5.38;;
24751;SDS011;27246;52.376;4.628;2023-02-04T13:41:51;17.15;;;5.57;;
24751;SDS011;27246;52.376;4.628;2023-02-04T13:46:53;14.63;;;4.95;;
24751;SDS011;27246;52.376;4.628;2023-02-04T13:51:55;19.65;;;5.43;;
24751;SDS011;27246;52.376;4.628;2023-02-04T13:56:56;13.55;;;4.28;;
24751;SDS011;27246;52.376;4.628;2023-02-04T14:01:58;15.60;;;4.15;;
24751;SDS011;27246;52.376;4.628;2023-02-04T14:07:00;15.20;;;4.25;;
24751;SDS011;27246;52.376;4.628;2023-02-04T14:12:01;15.05;;;4.80;;
24751;SDS011;27246;52.376;4.628;2023-02-04T14:17:03;14.07;;;4.47;;
24751;SDS011;27246;52.376;4.628;2023-02-04T14:22:05;15.40;;;4.38;;
24751;SDS011;27246;52.376;4.628;2023-02-04T14:27:08;10.35;;;3.75;;
24751;SDS011;27246;52.376;4.628;2023-02-04T14:32:10;13.65;;;3.92;;
24751;SDS011;27246;52.376;4.628;2023-02-04T14:37:12;8.57;;;3.33;;
24751;SDS011;27246;52.376;4.628;2023-02-04T14:42:14;9.00;;;3.20;;
24751;SDS011;27246;52.376;4.628;2023-02-04T14:47:15;16.08;;;4.18;;
24751;SDS011;27246;52.376;4.628;2023-02-04T14:52:17;11.15;;;3.22;;
24751;SDS011;27246;52.376;4.628;2023-02-04T14:57:19;11.50;;;4.40;;
24751;SDS011;27246;52.376;4.628;2023-02-04T15:02:22;7.97;;;3.20;;
24751;SDS011;27246;52.376;4.628;2023-02-04T15:07:25;7.97;;;2.63;;
24751;SDS011;27246;52.376;4.628;2023-02-04T15:12:26;9.38;;;3.00;;
24751;SDS011;27246;52.376;4.628;2023-02-04T15:17:28;6.70;;;2.70;;
24751;SDS011;27246;52.376;4.628;2023-02-04T15:22:30;6.18;;;2.10;;
24751;SDS011;27246;52.376;4.628;2023-02-04T15:27:32;5.15;;;2.20;;
24751;SDS011;27246;52.376;4.628;2023-02-04T15:32:34;3.85;;;2.17;;
24751;SDS011;27246;52.376;4.628;2023-02-04T15:37:35;4.63;;;2.50;;
24751;SDS011;27246;52.376;4.628;2023-02-04T15:42:37;7.45;;;3.00;;
24751;SDS011;27246;52.376;4.628;2023-02-04T15:47:38;9.63;;;3.58;;
24751;SDS011;27246;52.376;4.628;2023-02-04T15:52:40;9.07;;;3.25;;
24751;SDS011;27246;52.376;4.628;2023-02-04T15:57:42;7.03;;;3.25;;
24751;SDS011;27246;52.376;4.628;2023-02-04T16:02:44;11.30;;;4.05;;
24751;SDS011;27246;52.376;4.628;2023-02-04T16:07:46;6.82;;;3.05;;
24751;SDS011;27246;52.376;4.628;2023-02-04T16:12:48;10.73;;;3.70;;
24751;SDS011;27246;52.376;4.628;2023-02-04T16:17:51;9.65;;;4.22;;
24751;SDS011;27246;52.376;4.628;2023-02-04T16:22:55;13.55;;;5.03;;
24751;SDS011;27246;52.376;4.628;2023-02-04T16:27:57;7.78;;;4.63;;
24751;SDS011;27246;52.376;4.628;2023-02-04T16:32:59;11.65;;;4.10;;
24751;SDS011;27246;52.376;4.628;2023-02-04T16:38:00;11.50;;;4.30;;
24751;SDS011;27246;52.376;4.628;2023-02-04T16:43:02;12.98;;;3.90;;
24751;SDS011;27246;52.376;4.628;2023-02-04T16:48:05;14.05;;;6.20;;
24751;SDS011;27246;52.376;4.628;2023-02-04T16:53:06;13.75;;;5.57;;
24751;SDS011;27246;52.376;4.628;2023-02-04T16:58:11;14.45;;;4.97;;
24751;SDS011;27246;52.376;4.628;2023-02-04T17:03:13;12.73;;;5.53;;
24751;SDS011;27246;52.376;4.628;2023-02-04T17:08:15;11.18;;;5.53;;
24751;SDS011;27246;52.376;4.628;2023-02-04T17:13:17;15.77;;;7.10;;
24751;SDS011;27246;52.376;4.628;2023-02-04T17:18:20;14.50;;;7.22;;
24751;SDS011;27246;52.376;4.628;2023-02-04T17:23:21;19.77;;;8.82;;
24751;SDS011;27246;52.376;4.628;2023-02-04T17:28:23;19.90;;;10.48;;
24751;SDS011;27246;52.376;4.628;2023-02-04T17:33:26;17.48;;;10.95;;
24751;SDS011;27246;52.376;4.628;2023-02-04T17:38:29;11.88;;;6.65;;
24751;SDS011;27246;52.376;4.628;2023-02-04T17:43:31;17.73;;;7.28;;
24751;SDS011;27246;52.376;4.628;2023-02-04T17:48:34;16.52;;;8.60;;
24751;SDS011;27246;52.376;4.628;2023-02-04T17:53:36;18.67;;;8.40;;
24751;SDS011;27246;52.376;4.628;2023-02-04T17:58:41;18.50;;;8.32;;
24751;SDS011;27246;52.376;4.628;2023-02-04T18:03:43;20.65;;;9.20;;
24751;SDS011;27246;52.376;4.628;2023-02-04T18:08:47;17.02;;;9.07;;
24751;SDS011;27246;52.376;4.628;2023-02-04T18:13:50;22.85;;;12.13;;
24751;SDS011;27246;52.376;4.628;2023-02-04T18:18:54;15.70;;;9.40;;
24751;SDS011;27246;52.376;4.628;2023-02-04T18:24:02;17.10;;;10.70;;
24751;SDS011;27246;52.376;4.628;2023-02-04T18:29:50;17.00;;;9.67;;
24751;SDS011;27246;52.376;4.628;2023-02-04T18:34:40;23.23;;;12.43;;
24751;SDS011;27246;52.376;4.628;2023-02-04T18:39:45;27.17;;;15.55;;
24751;SDS011;27246;52.376;4.628;2023-02-04T18:44:46;21.70;;;11.30;;
24751;SDS011;27246;52.376;4.628;2023-02-04T18:49:49;19.55;;;11.65;;
24751;SDS011;27246;52.376;4.628;2023-02-04T18:54:51;29.13;;;16.17;;
24751;SDS011;27246;52.376;4.628;2023-02-04T19:05:18;25.67;;;15.05;;
24751;SDS011;27246;52.376;4.628;2023-02-04T19:10:33;24.63;;;16.60;;
24751;SDS011;27246;52.376;4.628;2023-02-04T19:15:37;28.95;;;15.18;;
24751;SDS011;27246;52.376;4.628;2023-02-04T19:20:40;30.23;;;15.35;;
24751;SDS011;27246;52.376;4.628;2023-02-04T19:25:45;25.48;;;15.07;;
24751;SDS011;27246;52.376;4.628;2023-02-04T19:30:48;25.73;;;13.98;;
24751;SDS011;27246;52.376;4.628;2023-02-04T19:35:51;20.77;;;11.98;;
24751;SDS011;27246;52.376;4.628;2023-02-04T19:40:53;20.63;;;11.02;;
24751;SDS011;27246;52.376;4.628;2023-02-04T19:45:54;20.85;;;11.85;;
24751;SDS011;27246;52.376;4.628;2023-02-04T19:50:56;14.75;;;11.60;;
24751;SDS011;27246;52.376;4.628;2023-02-04T19:55:59;17.30;;;12.10;;
24751;SDS011;27246;52.376;4.628;2023-02-04T20:01:01;14.13;;;9.52;;
24751;SDS011;27246;52.376;4.628;2023-02-04T20:27:21;19.05;;;12.27;;
24751;SDS011;27246;52.376;4.628;2023-02-04T20:32:26;13.18;;;9.55;;
24751;SDS011;27246;52.376;4.628;2023-02-04T20:37:30;17.63;;;9.93;;
24751;SDS011;27246;52.376;4.628;2023-02-04T20:42:32;17.70;;;10.82;;
24751;SDS011;27246;52.376;4.628;2023-02-04T20:47:41;13.63;;;11.00;;
24751;SDS011;27246;52.376;4.628;2023-02-04T20:57:45;17.52;;;12.82;;
24751;SDS011;27246;52.376;4.628;2023-02-04T21:02:48;20.77;;;12.68;;
24751;SDS011;27246;52.376;4.628;2023-02-04T21:07:50;18.52;;;11.73;;
24751;SDS011;27246;52.376;4.628;2023-02-04T21:12:58;17.77;;;11.45;;
24751;SDS011;27246;52.376;4.628;2023-02-04T21:18:01;19.40;;;12.27;;
24751;SDS011;27246;52.376;4.628;2023-02-04T21:23:03;17.02;;;13.07;;
24751;SDS011;27246;52.376;4.628;2023-02-04T21:28:13;19.65;;;12.45;;
24751;SDS011;27246;52.376;4.628;2023-02-04T21:33:15;18.13;;;12.00;;
24751;SDS011;27246;52.376;4.628;2023-02-04T21:38:17;17.25;;;11.40;;
24751;SDS011;27246;52.376;4.628;2023-02-04T21:43:19;18.35;;;12.45;;
24751;SDS011;27246;52.376;4.628;2023-02-04T21:48:21;14.85;;;11.93;;
24751;SDS011;27246;52.376;4.628;2023-02-04T21:53:23;18.33;;;12.32;;
24751;SDS011;27246;52.376;4.628;2023-02-04T21:58:25;16.83;;;11.85;;
24751;SDS011;27246;52.376;4.628;2023-02-04T22:03:27;17.20;;;12.15;;
24751;SDS011;27246;52.376;4.628;2023-02-04T22:08:28;18.52;;;11.65;;
24751;SDS011;27246;52.376;4.628;2023-02-04T22:13:30;19.70;;;12.43;;
24751;SDS011;27246;52.376;4.628;2023-02-04T22:18:32;15.73;;;12.23;;
24751;SDS011;27246;52.376;4.628;2023-02-04T22:23:33;17.70;;;12.57;;
24751;SDS011;27246;52.376;4.628;2023-02-04T22:28:35;18.90;;;13.18;;
24751;SDS011;27246;52.376;4.628;2023-02-04T22:33:37;21.83;;;14.27;;
24751;SDS011;27246;52.376;4.628;2023-02-04T22:38:38;20.85;;;14.68;;
24751;SDS011;27246;52.376;4.628;2023-02-04T22:43:40;22.95;;;15.20;;
24751;SDS011;27246;52.376;4.628;2023-02-04T22:48:42;20.88;;;14.32;;
24751;SDS011;27246;52.376;4.628;2023-02-04T22:53:43;23.75;;;14.18;;
24751;SDS011;27246;52.376;4.628;2023-02-04T22:58:45;19.48;;;13.65;;
24751;SDS011;27246;52.376;4.628;2023-02-04T23:03:47;21.17;;;14.65;;
24751;SDS011;27246;52.376;4.628;2023-02-04T23:08:50;22.23;;;15.30;;
24751;SDS011;27246;52.376;4.628;2023-02-04T23:13:53;20.10;;;14.30;;
24751;SDS011;27246;52.376;4.628;2023-02-04T23:18:56;20.50;;;14.95;;
24751;SDS011;27246;52.376;4.628;2023-02-04T23:23:58;20.17;;;14.32;;
24751;SDS011;27246;52.376;4.628;2023-02-04T23:29:00;19.80;;;14.10;;
24751;SDS011;27246;52.376;4.628;2023-02-04T23:34:03;20.38;;;14.05;;
24751;SDS011;27246;52.376;4.628;2023-02-04T23:39:04;20.85;;;14.18;;
24751;SDS011;27246;52.376;4.628;2023-02-04T23:44:06;19.27;;;13.90;;
24751;SDS011;27246;52.376;4.628;2023-02-04T23:49:08;20.98;;;14.77;;
24751;SDS011;27246;52.376;4.628;2023-02-04T23:54:10;21.95;;;13.63;;
24751;SDS011;27246;52.376;4.628;2023-02-04T23:59:12;17.83;;;12.80;;
